createdAt,value
2019-05-15T00:00:01.170Z,55.65
2019-05-15T00:02:28.072Z,56.87
2019-05-15T00:04:54.961Z,57.43
2019-05-15T00:07:21.986Z,57.51
2019-05-15T00:09:49.286Z,58.21
2019-05-15T00:12:18.756Z,57.38
2019-05-15T00:14:44.795Z,56.84
2019-05-15T00:17:11.528Z,56.88
2019-05-15T00:19:38.955Z,57.56
2019-05-15T00:22:05.866Z,57.47
2019-05-15T00:24:34.954Z,57.34
2019-05-15T00:27:01.663Z,57.81
2019-05-15T00:29:29.011Z,57.41
2019-05-15T00:31:56.022Z,57.43
2019-05-15T00:34:22.731Z,57.37
2019-05-15T00:36:49.437Z,57.18
2019-05-15T00:39:16.175Z,57.35
2019-05-15T00:41:53.319Z,57.21
2019-05-15T00:44:12.153Z,57.49
2019-05-15T00:46:39.041Z,57.55
2019-05-15T00:49:08.514Z,57.61
2019-05-15T00:51:35.157Z,57.87
2019-05-15T00:54:01.875Z,57.97
2019-05-15T00:56:28.612Z,57.88
2019-05-15T00:58:55.704Z,58.25
2019-05-15T01:01:22.549Z,58.60
2019-05-15T01:03:49.550Z,58.58
2019-05-15T01:06:18.885Z,58.94
2019-05-15T01:08:48.243Z,60.17
2019-05-15T01:11:15.547Z,60.12
2019-05-15T01:13:42.304Z,59.92
2019-05-15T01:16:09.360Z,59.61
2019-05-15T01:18:38.326Z,59.52
2019-05-15T01:21:08.490Z,59.46
2019-05-15T01:23:35.306Z,59.33
2019-05-15T01:26:02.543Z,59.32
2019-05-15T01:28:30.983Z,58.94
2019-05-15T01:30:59.200Z,59.68
2019-05-15T01:33:28.123Z,60.48
2019-05-15T01:35:54.705Z,60.79
2019-05-15T01:38:21.461Z,60.70
2019-05-15T01:40:49.682Z,60.89
2019-05-15T01:43:18.741Z,60.78
2019-05-15T01:45:48.124Z,61.17
2019-05-15T01:48:14.606Z,61.26
2019-05-15T01:50:41.317Z,61.21
2019-05-15T01:53:08.450Z,61.58
2019-05-15T01:55:36.115Z,61.86
2019-05-15T01:58:02.877Z,61.74
2019-05-15T02:00:29.585Z,62.20
2019-05-15T02:02:58.563Z,61.59
2019-05-15T02:05:24.927Z,61.37
2019-05-15T02:07:51.899Z,61.24
2019-05-15T02:10:18.736Z,61.69
2019-05-15T02:12:45.427Z,63.19
2019-05-15T02:15:12.137Z,64.12
2019-05-15T02:17:39.409Z,63.73
2019-05-15T02:20:08.405Z,63.08
2019-05-15T02:22:35.811Z,62.45
2019-05-15T02:25:08.277Z,62.27
2019-05-15T02:27:34.151Z,62.35
2019-05-15T02:30:16.185Z,62.58
2019-05-15T02:32:30.351Z,62.66
2019-05-15T02:34:59.001Z,63.19
2019-05-15T02:37:29.113Z,62.52
2019-05-15T02:39:54.586Z,62.25
2019-05-15T02:42:21.295Z,62.58
2019-05-15T02:44:50.008Z,62.66
2019-05-15T02:47:19.680Z,62.67
2019-05-15T02:49:48.410Z,62.71
2019-05-15T02:52:13.948Z,62.94
2019-05-15T02:54:40.683Z,63.26
2019-05-15T02:57:09.771Z,63.36
2019-05-15T02:59:39.310Z,63.09
2019-05-15T03:02:04.640Z,63.37
2019-05-15T03:04:31.390Z,65.02
2019-05-15T03:07:00.372Z,65.33
2019-05-15T03:09:29.747Z,65.19
2019-05-15T03:11:58.450Z,64.77
2019-05-15T03:14:24.302Z,64.50
2019-05-15T03:16:50.981Z,63.67
2019-05-15T03:19:19.308Z,63.81
2019-05-15T03:21:49.386Z,64.25
2019-05-15T03:24:14.988Z,64.34
2019-05-15T03:26:42.361Z,64.46
2019-05-15T03:29:09.763Z,64.44
2019-05-15T03:31:57.636Z,64.51
2019-05-15T03:34:19.316Z,64.40
2019-05-15T03:36:37.657Z,64.59
2019-05-15T03:39:05.734Z,64.76
2019-05-15T03:41:32.883Z,64.56
2019-05-15T03:43:59.814Z,64.35
2019-05-15T03:46:29.154Z,64.35
2019-05-15T03:48:55.307Z,66.37
2019-05-15T03:51:22.021Z,66.37
2019-05-15T03:53:49.685Z,66.77
2019-05-15T03:56:19.056Z,67.11
2019-05-15T03:58:49.086Z,66.83
2019-05-15T04:01:28.333Z,66.83
2019-05-15T04:03:43.333Z,66.29
2019-05-15T04:06:10.437Z,65.37
2019-05-15T04:08:39.125Z,64.97
2019-05-15T04:11:09.241Z,64.84
2019-05-15T04:13:39.551Z,65.03
2019-05-15T04:16:06.168Z,65.60
2019-05-15T04:18:32.876Z,65.44
2019-05-15T04:21:00.390Z,64.53
2019-05-15T04:23:29.818Z,65.22
2019-05-15T04:25:58.600Z,65.22
2019-05-15T04:28:24.507Z,65.54
2019-05-15T04:30:51.242Z,65.54
2019-05-15T04:33:19.920Z,65.19
2019-05-15T04:35:49.505Z,65.52
2019-05-15T04:38:15.289Z,65.83
2019-05-15T04:40:42.019Z,65.83
2019-05-15T04:43:10.538Z,65.29
2019-05-15T04:45:39.206Z,65.61
2019-05-15T04:48:09.545Z,65.41
2019-05-15T04:50:35.023Z,65.41
2019-05-15T04:53:03.177Z,65.48
2019-05-15T04:55:29.894Z,65.48
2019-05-15T04:57:59.104Z,64.29
2019-05-15T05:00:49.939Z,64.29
2019-05-15T05:03:19.817Z,64.37
2019-05-15T05:05:49.536Z,64.37
2019-05-15T05:08:14.750Z,64.51
2019-05-15T05:10:41.585Z,64.51
2019-05-15T05:13:08.924Z,64.25
2019-05-15T05:15:38.733Z,64.29
2019-05-15T05:18:04.475Z,64.29
2019-05-15T05:20:31.174Z,64.03
2019-05-15T05:22:58.363Z,64.03
2019-05-15T05:25:27.844Z,64.17
2019-05-15T05:27:53.935Z,63.98
2019-05-15T05:30:20.650Z,63.99
2019-05-15T05:32:48.728Z,63.45
2019-05-15T05:35:16.006Z,63.21
2019-05-15T05:37:43.092Z,63.05
2019-05-15T05:40:09.833Z,63.10
2019-05-15T05:42:39.260Z,63.20
2019-05-15T05:45:09.654Z,62.87
2019-05-15T05:47:38.180Z,62.66
2019-05-15T05:50:05.036Z,62.34
2019-05-15T05:52:31.779Z,62.01
2019-05-15T05:54:58.498Z,61.26
2019-05-15T05:57:25.235Z,61.00
2019-05-15T05:59:51.924Z,60.96
2019-05-15T06:02:18.826Z,60.57
2019-05-15T06:04:47.828Z,60.22
2019-05-15T06:07:14.600Z,59.68
2019-05-15T06:09:41.364Z,58.56
2019-05-15T06:12:08.079Z,58.06
2019-05-15T06:14:34.801Z,57.80
2019-05-15T06:17:01.534Z,57.89
2019-05-15T06:19:31.003Z,57.78
2019-05-15T06:22:00.705Z,56.17
2019-05-15T06:24:25.426Z,55.69
2019-05-15T06:26:52.606Z,54.90
2019-05-15T06:29:19.320Z,53.99
2019-05-15T06:31:48.218Z,53.17
2019-05-15T06:34:14.661Z,53.42
2019-05-15T06:36:41.377Z,53.48
2019-05-15T06:39:08.520Z,53.20
2019-05-15T06:41:39.194Z,52.94
2019-05-15T06:44:08.298Z,52.58
2019-05-15T06:46:34.999Z,52.55
2019-05-15T06:49:04.307Z,52.23
2019-05-15T06:51:31.341Z,51.49
2019-05-15T06:53:58.451Z,51.51
2019-05-15T06:56:27.975Z,51.07
2019-05-15T06:58:54.052Z,50.52
2019-05-15T07:01:20.734Z,50.54
2019-05-15T07:03:48.416Z,50.87
2019-05-15T07:06:17.963Z,50.76
2019-05-15T07:08:44.061Z,50.52
2019-05-15T07:11:10.756Z,51.08
2019-05-15T07:13:38.299Z,50.78
2019-05-15T07:16:08.151Z,50.08
2019-05-15T07:18:34.685Z,49.03
2019-05-15T07:21:01.397Z,48.80
2019-05-15T07:23:31.396Z,49.27
2019-05-15T07:25:58.714Z,49.56
2019-05-15T07:28:25.686Z,48.61
2019-05-15T07:30:54.970Z,48.38
2019-05-15T07:33:35.723Z,46.77
2019-05-15T07:35:50.394Z,46.46
2019-05-15T07:38:18.323Z,46.67
2019-05-15T07:40:45.211Z,46.50
2019-05-15T07:43:13.401Z,45.74
2019-05-15T07:46:45.442Z,45.04
2019-05-15T07:49:25.426Z,44.37
2019-05-15T07:51:52.441Z,43.76
2019-05-15T07:54:19.136Z,44.86
2019-05-15T07:56:45.862Z,43.92
2019-05-15T07:59:15.646Z,43.26
2019-05-15T08:01:42.342Z,43.20
2019-05-15T08:04:24.757Z,43.01
2019-05-15T08:06:40.458Z,42.23
2019-05-15T08:09:09.542Z,42.70
2019-05-15T08:11:38.856Z,42.45
2019-05-15T08:14:04.901Z,41.83
2019-05-15T08:16:31.634Z,41.00
2019-05-15T08:18:58.363Z,40.83
2019-05-15T08:21:25.074Z,40.56
2019-05-15T08:23:51.801Z,40.50
2019-05-15T08:26:18.505Z,40.55
2019-05-15T08:28:45.506Z,40.87
2019-05-15T08:31:12.264Z,40.11
2019-05-15T08:33:41.106Z,39.39
2019-05-15T08:36:08.371Z,38.63
2019-05-15T08:38:38.144Z,38.08
2019-05-15T08:41:04.163Z,37.40
2019-05-15T08:43:31.490Z,37.84
2019-05-15T08:45:58.773Z,36.87
2019-05-15T08:48:27.732Z,35.49
2019-05-15T08:50:54.506Z,35.88
2019-05-15T08:53:21.482Z,36.09
2019-05-15T08:55:48.276Z,35.90
2019-05-15T08:58:14.916Z,35.50
2019-05-15T09:00:44.059Z,35.38
2019-05-15T09:03:10.255Z,35.09
2019-05-15T09:05:38.798Z,33.42
2019-05-15T09:08:05.572Z,33.15
2019-05-15T09:10:32.411Z,33.44
2019-05-15T09:12:59.171Z,33.62
2019-05-15T09:15:25.856Z,34.35
2019-05-15T09:18:07.925Z,34.11
2019-05-15T09:20:23.475Z,33.85
2019-05-15T09:22:50.162Z,33.76
2019-05-15T09:25:19.407Z,33.51
2019-05-15T09:27:45.490Z,34.44
2019-05-15T09:30:18.287Z,33.34
2019-05-15T09:32:44.636Z,33.32
2019-05-15T09:35:18.677Z,32.42
2019-05-15T09:37:45.736Z,31.20
2019-05-15T09:40:12.437Z,31.66
2019-05-15T09:42:39.147Z,31.69
2019-05-15T09:45:08.888Z,30.69
2019-05-15T09:47:40.410Z,31.06
2019-05-15T09:50:08.505Z,31.66
2019-05-15T09:52:35.352Z,31.06
2019-05-15T09:55:03.690Z,30.04
2019-05-15T09:57:32.480Z,30.27
2019-05-15T09:59:59.168Z,29.64
2019-05-15T10:02:28.231Z,30.58
2019-05-15T10:05:06.113Z,30.26
2019-05-15T10:07:23.406Z,30.20
2019-05-15T10:09:52.336Z,31.50
2019-05-15T10:12:18.685Z,31.92
2019-05-15T10:14:48.852Z,31.43
2019-05-15T10:17:13.968Z,32.11
2019-05-15T10:19:40.903Z,32.26
2019-05-15T10:22:09.761Z,31.27
2019-05-15T10:24:36.239Z,31.05
2019-05-15T10:27:03.937Z,31.36
2019-05-15T10:29:32.909Z,32.16
2019-05-15T10:31:59.627Z,31.49
2019-05-15T10:34:28.753Z,31.72
2019-05-15T10:36:55.022Z,31.31
2019-05-15T10:39:21.815Z,30.50
2019-05-15T10:41:48.511Z,30.85
2019-05-15T10:44:18.002Z,31.02
2019-05-15T10:46:44.175Z,31.06
2019-05-15T10:49:11.070Z,31.46
2019-05-15T10:51:39.653Z,31.42
2019-05-15T10:54:08.533Z,30.93
2019-05-15T10:56:35.705Z,30.87
2019-05-15T10:59:03.080Z,30.69
2019-05-15T11:01:29.806Z,30.97
2019-05-15T11:03:59.326Z,31.37
2019-05-15T11:06:26.041Z,32.45
2019-05-15T11:08:52.746Z,33.68
2019-05-15T11:11:24.043Z,33.55
2019-05-15T11:13:50.739Z,33.00
2019-05-15T11:16:18.634Z,32.95
2019-05-15T11:18:48.233Z,34.16
2019-05-15T11:21:18.970Z,33.77
2019-05-15T11:23:49.426Z,32.55
2019-05-15T11:26:16.393Z,32.03
2019-05-15T11:28:43.239Z,31.66
2019-05-15T11:31:10.521Z,30.82
2019-05-15T11:33:38.439Z,31.35
2019-05-15T11:36:06.348Z,31.37
2019-05-15T11:38:33.383Z,31.69
2019-05-15T11:41:00.395Z,31.45
2019-05-15T11:43:29.132Z,30.21
2019-05-15T11:45:58.651Z,30.48
2019-05-15T11:48:29.833Z,30.37
2019-05-15T11:50:58.914Z,30.64
2019-05-15T11:53:28.229Z,31.18
2019-05-15T11:55:54.753Z,31.27
2019-05-15T11:58:21.808Z,31.39
2019-05-15T12:00:49.235Z,31.37
2019-05-15T12:03:18.870Z,29.90
2019-05-15T12:05:44.947Z,30.09
2019-05-15T12:08:12.620Z,28.87
2019-05-15T12:10:39.805Z,29.26
2019-05-15T12:13:09.497Z,29.97
2019-05-15T12:15:35.199Z,29.41
2019-05-15T12:18:01.890Z,29.06
2019-05-15T12:20:28.792Z,28.82
2019-05-15T12:22:55.708Z,28.54
2019-05-15T12:25:22.416Z,28.59
2019-05-15T12:27:49.817Z,28.16
2019-05-15T12:30:19.651Z,27.18
2019-05-15T12:32:45.187Z,27.16
2019-05-15T12:35:12.187Z,27.66
2019-05-15T12:37:40.113Z,28.27
2019-05-15T12:59:58.532Z,28.45
2019-05-15T13:02:27.901Z,28.46
2019-05-15T13:04:56.992Z,27.59
2019-05-15T13:07:24.007Z,28.35
2019-05-15T13:09:50.811Z,27.93
2019-05-15T13:12:18.199Z,27.89
2019-05-15T13:14:45.324Z,28.04
2019-05-15T13:17:12.718Z,27.27
2019-05-15T13:19:39.419Z,26.51
2019-05-15T13:22:17.400Z,26.48
2019-05-15T13:24:34.839Z,27.19
2019-05-15T13:27:01.949Z,27.35
2019-05-15T13:29:29.182Z,27.26
2019-05-15T13:31:58.463Z,25.72
2019-05-15T13:34:25.015Z,25.54
2019-05-15T13:36:52.177Z,25.72
2019-05-15T13:39:18.879Z,26.29
2019-05-15T13:41:48.169Z,27.50
2019-05-15T13:44:14.237Z,27.48
2019-05-15T13:46:41.057Z,25.72
2019-05-15T13:49:08.434Z,25.82
2019-05-15T13:51:48.900Z,26.31
2019-05-15T13:54:15.925Z,26.89
2019-05-15T13:56:42.625Z,27.33
2019-05-15T13:59:10.217Z,27.33
2019-05-15T14:01:39.385Z,26.81
2019-05-15T14:04:08.670Z,26.81
2019-05-15T14:06:37.941Z,24.66
2019-05-15T14:09:08.752Z,24.92
2019-05-15T14:11:35.736Z,25.11
2019-05-15T14:14:06.838Z,25.37
2019-05-15T14:16:33.573Z,26.01
2019-05-15T14:19:03.595Z,25.04
2019-05-15T14:21:30.284Z,24.69
2019-05-15T14:23:58.891Z,25.34
2019-05-15T14:26:25.684Z,24.58
2019-05-15T14:28:52.401Z,24.37
2019-05-15T14:31:19.102Z,23.33
2019-05-15T14:33:45.871Z,23.01
2019-05-15T14:36:12.601Z,23.64
2019-05-15T14:38:39.311Z,24.04
2019-05-15T14:41:06.036Z,24.48
2019-05-15T14:43:32.927Z,24.47
2019-05-15T14:46:04.416Z,22.89
2019-05-15T14:48:31.270Z,22.25
2019-05-15T14:51:00.684Z,22.62
2019-05-15T14:53:38.393Z,22.55
2019-05-15T14:56:04.812Z,22.15
2019-05-15T14:58:31.830Z,22.58
2019-05-15T15:01:03.087Z,22.34
2019-05-15T15:03:28.922Z,22.88
2019-05-15T15:05:58.143Z,22.34
2019-05-15T15:08:25.660Z,21.79
2019-05-15T15:10:52.594Z,21.95
2019-05-15T15:13:19.283Z,23.24
2019-05-15T15:15:48.498Z,23.68
2019-05-15T15:18:15.029Z,23.88
2019-05-15T15:20:41.756Z,24.28
2019-05-15T15:23:09.084Z,24.62
2019-05-15T15:25:35.784Z,24.57
2019-05-15T15:28:02.548Z,24.48
2019-05-15T15:30:29.873Z,23.24
2019-05-15T15:32:57.677Z,22.14
2019-05-15T15:35:24.914Z,22.37
2019-05-15T15:37:51.627Z,22.43
2019-05-15T15:40:18.854Z,21.58
2019-05-15T15:42:48.371Z,21.74
2019-05-15T15:45:14.488Z,22.37
2019-05-15T15:47:41.578Z,22.38
2019-05-15T15:50:09.422Z,22.98
2019-05-15T15:52:38.463Z,24.18
2019-05-15T15:55:08.297Z,24.38
2019-05-15T15:57:35.133Z,24.27
2019-05-15T16:00:05.224Z,24.20
2019-05-15T16:02:32.052Z,24.62
2019-05-15T16:04:59.048Z,25.02
2019-05-15T16:07:28.199Z,25.10
2019-05-15T16:09:55.296Z,25.41
2019-05-15T16:12:22.022Z,24.77
2019-05-15T16:14:48.961Z,24.49
2019-05-15T16:17:17.932Z,24.63
2019-05-15T16:19:44.284Z,24.46
2019-05-15T16:22:12.989Z,24.57
2019-05-15T16:24:39.969Z,26.05
2019-05-15T16:27:08.991Z,28.74
2019-05-15T16:29:35.637Z,30.17
2019-05-15T16:32:02.348Z,30.74
2019-05-15T16:34:32.140Z,27.73
2019-05-15T16:36:58.878Z,29.64
2019-05-15T16:39:25.680Z,28.42
2019-05-15T16:41:52.735Z,29.81
2019-05-15T16:44:19.654Z,28.90
2019-05-15T16:46:48.171Z,32.01
2019-05-15T16:49:15.328Z,28.00
2019-05-15T16:51:42.105Z,31.12
2019-05-15T16:54:08.945Z,30.71
2019-05-15T16:56:40.070Z,29.63
2019-05-15T16:59:09.178Z,30.07
2019-05-15T17:01:39.148Z,28.78
2019-05-15T17:04:04.917Z,30.21
2019-05-15T17:06:31.972Z,29.80
2019-05-15T17:08:58.880Z,29.81
2019-05-15T17:11:25.636Z,29.56
2019-05-15T17:13:52.341Z,29.20
2019-05-15T17:16:21.091Z,29.58
2019-05-15T17:18:48.586Z,29.49
2019-05-15T17:21:15.734Z,30.09
2019-05-15T17:23:42.738Z,29.21
2019-05-15T17:26:11.437Z,30.07
2019-05-15T17:28:38.381Z,29.93
2019-05-15T17:31:05.307Z,29.89
2019-05-15T17:33:32.154Z,29.52
2019-05-15T17:35:59.158Z,29.23
2019-05-15T17:38:28.723Z,29.53
2019-05-15T17:40:57.716Z,29.95
2019-05-15T17:43:24.348Z,29.56
2019-05-15T17:45:51.293Z,30.13
2019-05-15T17:48:19.644Z,30.29
2019-05-15T17:50:52.161Z,29.95
2019-05-15T17:53:15.371Z,29.58
2019-05-15T17:55:42.124Z,29.35
2019-05-15T17:58:09.405Z,29.89
2019-05-15T18:00:36.307Z,29.87
2019-05-15T18:03:08.476Z,29.30
2019-05-15T18:05:39.184Z,29.17
2019-05-15T18:08:05.702Z,28.68
2019-05-15T18:10:32.536Z,28.89
2019-05-15T18:12:59.276Z,29.15
2019-05-15T18:15:26.296Z,29.69
2019-05-15T18:17:53.369Z,29.80
2019-05-15T18:20:23.796Z,29.73
2019-05-15T18:22:50.504Z,29.40
2019-05-15T18:25:18.260Z,29.21
2019-05-15T18:27:45.216Z,28.63
2019-05-15T18:30:13.280Z,28.48
2019-05-15T18:32:40.299Z,28.52
2019-05-15T18:35:08.325Z,29.10
2019-05-15T18:37:35.778Z,29.30
2019-05-15T18:40:06.182Z,28.96
2019-05-15T18:42:31.694Z,28.68
2019-05-15T18:44:58.498Z,28.50
2019-05-15T18:47:25.162Z,28.64
2019-05-15T18:50:25.663Z,28.44
2019-05-15T18:52:52.758Z,28.31
2019-05-15T18:55:19.487Z,28.03
2019-05-15T18:57:48.484Z,27.93
2019-05-15T19:00:15.236Z,28.40
2019-05-15T19:02:42.606Z,28.19
2019-05-15T19:05:09.652Z,27.99
2019-05-15T19:07:38.269Z,28.02
2019-05-15T19:10:05.124Z,28.28
2019-05-15T19:12:31.818Z,28.15
2019-05-15T19:14:58.836Z,28.40
2019-05-15T19:17:27.542Z,28.36
2019-05-15T19:19:54.914Z,28.26
2019-05-15T19:22:21.746Z,28.64
2019-05-15T19:24:49.061Z,28.80
2019-05-15T19:27:18.496Z,29.01
2019-05-15T19:29:44.655Z,29.13
2019-05-15T19:32:11.387Z,29.25
2019-05-15T19:34:40.987Z,29.71
2019-05-15T19:37:07.941Z,29.93
2019-05-15T19:39:35.081Z,29.93
2019-05-15T19:42:01.966Z,30.09
2019-05-15T19:44:30.679Z,30.23
2019-05-15T19:46:58.499Z,30.34
2019-05-15T19:49:25.816Z,30.17
2019-05-15T19:51:52.850Z,30.51
2019-05-15T19:54:19.645Z,30.93
2019-05-15T19:56:48.212Z,31.15
2019-05-15T19:59:15.035Z,31.26
2019-05-15T20:01:41.919Z,31.52
2019-05-15T20:04:08.683Z,31.58
2019-05-15T20:06:36.039Z,31.68
2019-05-15T20:09:04.768Z,31.79
2019-05-15T20:11:31.496Z,32.02
2019-05-15T20:13:58.529Z,32.20
2019-05-15T20:16:25.451Z,32.31
2019-05-15T20:18:52.182Z,32.51
2019-05-15T20:21:19.094Z,32.82
2019-05-15T20:23:46.289Z,33.00
2019-05-15T20:26:15.033Z,33.19
2019-05-15T20:28:42.231Z,33.28
2019-05-15T20:31:09.303Z,33.29
2019-05-15T20:33:37.888Z,33.43
2019-05-15T20:36:05.094Z,33.38
2019-05-15T20:38:34.112Z,33.48
2019-05-15T20:41:03.205Z,34.01
2019-05-15T20:43:29.961Z,33.98
2019-05-15T20:45:58.763Z,33.93
2019-05-15T20:48:25.548Z,34.01
2019-05-15T20:50:52.487Z,34.26
2019-05-15T20:53:19.565Z,34.39
2019-05-15T20:55:48.314Z,34.63
2019-05-15T20:58:15.023Z,34.78
2019-05-15T21:00:42.763Z,34.67
2019-05-15T21:03:09.929Z,34.79
2019-05-15T21:05:38.242Z,34.88
2019-05-15T21:08:05.039Z,35.13
2019-05-15T21:10:31.783Z,35.45
2019-05-15T21:12:59.911Z,35.49
2019-05-15T21:15:26.639Z,35.54
2019-05-15T21:17:59.431Z,35.78
2019-05-15T21:20:23.609Z,35.83
2019-05-15T21:22:50.599Z,35.80
2019-05-15T21:25:19.816Z,36.16
2019-05-15T21:27:48.576Z,36.06
2019-05-15T21:30:14.723Z,36.43
2019-05-15T21:32:41.531Z,36.30
2019-05-15T21:35:09.350Z,36.19
2019-05-15T21:37:39.033Z,36.42
2019-05-15T21:40:08.000Z,36.54
2019-05-15T21:42:34.354Z,36.47
2019-05-15T21:45:01.086Z,36.74
2019-05-15T21:47:28.111Z,36.87
2019-05-15T21:49:55.121Z,37.01
2019-05-15T21:52:22.369Z,37.33
2019-05-15T21:54:50.460Z,37.29
2019-05-15T21:57:32.265Z,37.20
2019-05-15T21:59:45.973Z,37.28
2019-05-15T22:02:13.076Z,37.42
2019-05-15T22:04:51.276Z,37.55
2019-05-15T22:07:28.185Z,37.70
2019-05-15T22:10:19.668Z,38.00
2019-05-15T22:12:48.299Z,38.13
2019-05-15T22:15:15.277Z,38.18
2019-05-15T22:17:42.359Z,38.59
2019-05-15T22:20:10.798Z,38.71
2019-05-15T22:22:37.903Z,38.79
2019-05-15T22:25:04.946Z,39.46
2019-05-15T22:27:31.701Z,39.92
2019-05-15T22:29:58.864Z,40.05
2019-05-15T22:32:25.705Z,40.45
2019-05-15T22:35:05.683Z,40.71
2019-05-15T22:37:21.717Z,40.91
2019-05-15T22:39:48.977Z,40.72
2019-05-15T22:42:18.140Z,41.10
2019-05-15T22:44:44.264Z,41.23
2019-05-15T22:47:10.995Z,41.42
2019-05-15T22:49:38.121Z,41.21
2019-05-15T22:52:05.247Z,41.23
2019-05-15T22:54:31.979Z,41.16
2019-05-15T22:56:59.207Z,41.32
2019-05-15T22:59:28.214Z,41.44
2019-05-15T23:01:54.500Z,41.71
2019-05-15T23:04:21.744Z,41.60
2019-05-15T23:06:48.444Z,41.93
2019-05-15T23:09:15.141Z,42.10
2019-05-15T23:11:42.049Z,42.50
2019-05-15T23:14:12.931Z,42.45
2019-05-15T23:16:39.979Z,42.37
2019-05-15T23:19:08.140Z,42.99
2019-05-15T23:21:40.375Z,43.17
2019-05-15T23:24:09.608Z,42.96
2019-05-15T23:26:38.633Z,43.39
2019-05-15T23:29:05.030Z,43.78
2019-05-15T23:31:32.068Z,44.13
2019-05-15T23:33:58.801Z,44.05
2019-05-15T23:36:25.496Z,44.62
2019-05-15T23:38:52.346Z,44.42
2019-05-15T23:41:19.257Z,44.77
2019-05-15T23:43:48.271Z,44.76
2019-05-15T23:46:14.865Z,44.43
2019-05-15T23:48:41.583Z,44.31
2019-05-15T23:51:08.661Z,44.36
2019-05-15T23:53:35.572Z,44.85
2019-05-15T23:56:02.302Z,45.63
2019-05-15T23:58:29.387Z,46.10
